sensor_id;sensor_type;location;lat;lon;timestamp;temperature;humidity
51215;DHT22;63849;47.546;19.254;2023-05-10T00:02:11;11.40;70.00
51215;DHT22;63849;47.546;19.254;2023-05-10T00:04:37;11.40;70.40
51215;DHT22;63849;47.546;19.254;2023-05-10T00:07:03;11.40;70.50
51215;DHT22;63849;47.546;19.254;2023-05-10T00:09:29;11.40;70.30
51215;DHT22;63849;47.546;19.254;2023-05-10T00:11:54;11.30;70.40
51215;DHT22;63849;47.546;19.254;2023-05-10T00:14:20;11.40;70.70
51215;DHT22;63849;47.546;19.254;2023-05-10T00:16:46;11.20;71.30
51215;DHT22;63849;47.546;19.254;2023-05-10T00:19:11;11.20;71.20
51215;DHT22;63849;47.546;19.254;2023-05-10T00:21:37;11.30;71.30
51215;DHT22;63849;47.546;19.254;2023-05-10T00:24:03;11.20;71.50
51215;DHT22;63849;47.546;19.254;2023-05-10T00:26:29;11.10;71.60
51215;DHT22;63849;47.546;19.254;2023-05-10T00:28:55;11.10;71.90
51215;DHT22;63849;47.546;19.254;2023-05-10T00:31:22;11.10;72.30
51215;DHT22;63849;47.546;19.254;2023-05-10T00:33:47;11.20;71.90
51215;DHT22;63849;47.546;19.254;2023-05-10T00:36:13;11.30;71.90
51215;DHT22;63849;47.546;19.254;2023-05-10T00:38:39;11.30;71.50
51215;DHT22;63849;47.546;19.254;2023-05-10T00:41:05;11.30;71.90
51215;DHT22;63849;47.546;19.254;2023-05-10T00:43:32;11.30;72.10
51215;DHT22;63849;47.546;19.254;2023-05-10T00:45:57;11.30;72.00
51215;DHT22;63849;47.546;19.254;2023-05-10T00:48:23;11.30;72.10
51215;DHT22;63849;47.546;19.254;2023-05-10T00:50:49;11.30;72.00
51215;DHT22;63849;47.546;19.254;2023-05-10T00:53:15;11.40;72.00
51215;DHT22;63849;47.546;19.254;2023-05-10T00:55:41;11.30;72.60
51215;DHT22;63849;47.546;19.254;2023-05-10T00:58:07;11.40;72.30
51215;DHT22;63849;47.546;19.254;2023-05-10T01:00:33;11.40;72.30
51215;DHT22;63849;47.546;19.254;2023-05-10T01:02:59;11.40;72.20
51215;DHT22;63849;47.546;19.254;2023-05-10T01:05:26;11.40;72.00
51215;DHT22;63849;47.546;19.254;2023-05-10T01:07:52;11.40;72.20
51215;DHT22;63849;47.546;19.254;2023-05-10T01:10:18;11.50;72.00
51215;DHT22;63849;47.546;19.254;2023-05-10T01:12:46;11.50;72.30
51215;DHT22;63849;47.546;19.254;2023-05-10T01:15:12;11.50;72.40
51215;DHT22;63849;47.546;19.254;2023-05-10T01:17:42;11.40;72.20
51215;DHT22;63849;47.546;19.254;2023-05-10T01:20:09;11.50;72.30
51215;DHT22;63849;47.546;19.254;2023-05-10T01:28:58;11.70;71.90
51215;DHT22;63849;47.546;19.254;2023-05-10T01:34:14;11.60;72.50
51215;DHT22;63849;47.546;19.254;2023-05-10T01:36:48;11.60;72.20
51215;DHT22;63849;47.546;19.254;2023-05-10T01:39:55;11.70;72.30
51215;DHT22;63849;47.546;19.254;2023-05-10T01:42:26;11.60;72.50
51215;DHT22;63849;47.546;19.254;2023-05-10T01:45:07;11.70;72.20
51215;DHT22;63849;47.546;19.254;2023-05-10T01:47:48;11.80;72.30
51215;DHT22;63849;47.546;19.254;2023-05-10T01:50:18;11.90;72.10
51215;DHT22;63849;47.546;19.254;2023-05-10T01:52:51;11.90;71.70
51215;DHT22;63849;47.546;19.254;2023-05-10T01:55:24;11.90;71.50
51215;DHT22;63849;47.546;19.254;2023-05-10T01:57:55;11.90;71.60
51215;DHT22;63849;47.546;19.254;2023-05-10T02:00:22;11.80;71.70
51215;DHT22;63849;47.546;19.254;2023-05-10T02:02:49;11.80;71.90
51215;DHT22;63849;47.546;19.254;2023-05-10T02:05:17;11.80;72.10
51215;DHT22;63849;47.546;19.254;2023-05-10T02:07:44;11.80;72.20
51215;DHT22;63849;47.546;19.254;2023-05-10T02:10:10;11.80;72.00
51215;DHT22;63849;47.546;19.254;2023-05-10T02:12:41;11.80;71.90
51215;DHT22;63849;47.546;19.254;2023-05-10T02:15:08;11.80;73.10
51215;DHT22;63849;47.546;19.254;2023-05-10T02:17:35;11.80;73.40
51215;DHT22;63849;47.546;19.254;2023-05-10T02:20:03;11.80;73.30
51215;DHT22;63849;47.546;19.254;2023-05-10T02:22:30;11.90;73.40
51215;DHT22;63849;47.546;19.254;2023-05-10T02:24:58;11.90;73.30
51215;DHT22;63849;47.546;19.254;2023-05-10T02:27:25;11.90;72.80
51215;DHT22;63849;47.546;19.254;2023-05-10T02:29:53;11.90;73.40
51215;DHT22;63849;47.546;19.254;2023-05-10T02:32:21;11.80;72.50
51215;DHT22;63849;47.546;19.254;2023-05-10T02:34:48;11.90;72.50
51215;DHT22;63849;47.546;19.254;2023-05-10T02:37:19;11.90;72.10
51215;DHT22;63849;47.546;19.254;2023-05-10T02:39:47;11.90;72.20
51215;DHT22;63849;47.546;19.254;2023-05-10T02:42:16;11.90;72.70
51215;DHT22;63849;47.546;19.254;2023-05-10T02:44:43;12.00;73.40
51215;DHT22;63849;47.546;19.254;2023-05-10T02:47:11;12.00;73.70
51215;DHT22;63849;47.546;19.254;2023-05-10T02:49:36;11.90;74.40
51215;DHT22;63849;47.546;19.254;2023-05-10T02:52:05;11.90;75.00
51215;DHT22;63849;47.546;19.254;2023-05-10T02:54:43;11.70;75.50
51215;DHT22;63849;47.546;19.254;2023-05-10T02:57:16;11.60;76.20
51215;DHT22;63849;47.546;19.254;2023-05-10T02:59:43;11.70;76.20
51215;DHT22;63849;47.546;19.254;2023-05-10T03:02:14;11.70;76.20
51215;DHT22;63849;47.546;19.254;2023-05-10T03:04:39;11.70;76.10
51215;DHT22;63849;47.546;19.254;2023-05-10T03:07:05;11.70;76.40
51215;DHT22;63849;47.546;19.254;2023-05-10T03:09:32;11.60;76.30
51215;DHT22;63849;47.546;19.254;2023-05-10T03:17:40;11.50;76.40
51215;DHT22;63849;47.546;19.254;2023-05-10T03:20:16;11.40;76.20
51215;DHT22;63849;47.546;19.254;2023-05-10T03:22:51;11.30;76.50
51215;DHT22;63849;47.546;19.254;2023-05-10T03:25:19;11.30;76.70
51215;DHT22;63849;47.546;19.254;2023-05-10T03:27:45;11.20;76.60
51215;DHT22;63849;47.546;19.254;2023-05-10T03:30:12;11.10;77.00
51215;DHT22;63849;47.546;19.254;2023-05-10T03:32:38;11.10;76.80
51215;DHT22;63849;47.546;19.254;2023-05-10T03:35:08;11.20;76.60
51215;DHT22;63849;47.546;19.254;2023-05-10T03:37:35;11.10;76.30
51215;DHT22;63849;47.546;19.254;2023-05-10T03:40:01;11.00;76.60
51215;DHT22;63849;47.546;19.254;2023-05-10T03:42:27;11.10;76.30
51215;DHT22;63849;47.546;19.254;2023-05-10T03:44:53;11.10;76.10
51215;DHT22;63849;47.546;19.254;2023-05-10T03:47:19;11.10;75.90
51215;DHT22;63849;47.546;19.254;2023-05-10T03:49:45;11.10;75.50
51215;DHT22;63849;47.546;19.254;2023-05-10T03:52:12;11.20;75.60
51215;DHT22;63849;47.546;19.254;2023-05-10T03:54:38;11.20;75.40
51215;DHT22;63849;47.546;19.254;2023-05-10T03:57:03;11.10;76.30
51215;DHT22;63849;47.546;19.254;2023-05-10T03:59:30;11.10;76.40
51215;DHT22;63849;47.546;19.254;2023-05-10T04:01:55;11.00;76.70
51215;DHT22;63849;47.546;19.254;2023-05-10T04:04:21;11.10;76.90
51215;DHT22;63849;47.546;19.254;2023-05-10T04:06:48;11.10;76.40
51215;DHT22;63849;47.546;19.254;2023-05-10T04:09:14;11.10;76.30
51215;DHT22;63849;47.546;19.254;2023-05-10T04:11:40;11.20;76.00
51215;DHT22;63849;47.546;19.254;2023-05-10T04:14:06;11.30;75.30
51215;DHT22;63849;47.546;19.254;2023-05-10T04:16:31;11.20;75.60
51215;DHT22;63849;47.546;19.254;2023-05-10T04:18:58;11.30;74.90
51215;DHT22;63849;47.546;19.254;2023-05-10T04:21:25;11.40;74.60
51215;DHT22;63849;47.546;19.254;2023-05-10T04:23:50;11.50;74.30
51215;DHT22;63849;47.546;19.254;2023-05-10T04:26:16;11.60;73.90
51215;DHT22;63849;47.546;19.254;2023-05-10T04:28:42;11.60;73.40
51215;DHT22;63849;47.546;19.254;2023-05-10T04:31:09;11.50;73.40
51215;DHT22;63849;47.546;19.254;2023-05-10T04:33:35;11.60;73.30
51215;DHT22;63849;47.546;19.254;2023-05-10T04:36:02;11.60;73.00
51215;DHT22;63849;47.546;19.254;2023-05-10T04:38:30;11.80;72.80
51215;DHT22;63849;47.546;19.254;2023-05-10T04:41:06;11.80;72.00
51215;DHT22;63849;47.546;19.254;2023-05-10T04:43:33;11.80;72.10
51215;DHT22;63849;47.546;19.254;2023-05-10T04:45:58;11.90;71.90
51215;DHT22;63849;47.546;19.254;2023-05-10T04:48:24;12.10;71.50
51215;DHT22;63849;47.546;19.254;2023-05-10T04:50:50;12.10;71.10
51215;DHT22;63849;47.546;19.254;2023-05-10T04:53:16;11.90;71.60
51215;DHT22;63849;47.546;19.254;2023-05-10T04:55:42;12.00;71.60
51215;DHT22;63849;47.546;19.254;2023-05-10T04:58:07;12.10;70.90
51215;DHT22;63849;47.546;19.254;2023-05-10T05:00:34;12.10;70.90
51215;DHT22;63849;47.546;19.254;2023-05-10T05:02:59;12.00;71.30
51215;DHT22;63849;47.546;19.254;2023-05-10T05:05:25;12.20;70.90
51215;DHT22;63849;47.546;19.254;2023-05-10T05:07:51;12.20;70.40
51215;DHT22;63849;47.546;19.254;2023-05-10T05:10:17;12.30;70.80
51215;DHT22;63849;47.546;19.254;2023-05-10T05:12:42;12.30;71.00
51215;DHT22;63849;47.546;19.254;2023-05-10T05:15:08;12.50;70.30
51215;DHT22;63849;47.546;19.254;2023-05-10T05:17:35;12.60;69.80
51215;DHT22;63849;47.546;19.254;2023-05-10T05:20:02;12.70;70.00
51215;DHT22;63849;47.546;19.254;2023-05-10T05:22:28;13.10;69.20
51215;DHT22;63849;47.546;19.254;2023-05-10T05:24:55;13.20;68.20
51215;DHT22;63849;47.546;19.254;2023-05-10T05:27:21;13.60;67.70
51215;DHT22;63849;47.546;19.254;2023-05-10T05:29:50;13.80;66.50
51215;DHT22;63849;47.546;19.254;2023-05-10T05:32:16;14.00;67.20
51215;DHT22;63849;47.546;19.254;2023-05-10T05:34:44;14.40;64.70
51215;DHT22;63849;47.546;19.254;2023-05-10T05:37:18;14.80;62.90
51215;DHT22;63849;47.546;19.254;2023-05-10T05:39:45;14.80;63.20
51215;DHT22;63849;47.546;19.254;2023-05-10T05:42:12;14.60;63.40
51215;DHT22;63849;47.546;19.254;2023-05-10T05:44:39;14.50;63.70
51215;DHT22;63849;47.546;19.254;2023-05-10T05:47:05;14.80;63.10
51215;DHT22;63849;47.546;19.254;2023-05-10T05:49:32;14.60;63.80
51215;DHT22;63849;47.546;19.254;2023-05-10T05:52:04;14.60;64.60
51215;DHT22;63849;47.546;19.254;2023-05-10T05:54:33;15.00;62.70
51215;DHT22;63849;47.546;19.254;2023-05-10T05:57:00;15.20;61.70
51215;DHT22;63849;47.546;19.254;2023-05-10T05:59:27;15.40;61.50
51215;DHT22;63849;47.546;19.254;2023-05-10T06:01:55;16.40;59.50
51215;DHT22;63849;47.546;19.254;2023-05-10T06:04:23;17.10;57.40
51215;DHT22;63849;47.546;19.254;2023-05-10T06:06:49;18.10;54.30
51215;DHT22;63849;47.546;19.254;2023-05-10T06:09:15;19.10;50.70
51215;DHT22;63849;47.546;19.254;2023-05-10T06:11:41;20.50;48.00
51215;DHT22;63849;47.546;19.254;2023-05-10T06:14:07;21.70;44.10
51215;DHT22;63849;47.546;19.254;2023-05-10T06:16:36;19.90;48.10
51215;DHT22;63849;47.546;19.254;2023-05-10T06:19:02;20.30;46.50
51215;DHT22;63849;47.546;19.254;2023-05-10T06:21:28;20.20;46.60
51215;DHT22;63849;47.546;19.254;2023-05-10T06:23:56;19.20;49.60
51215;DHT22;63849;47.546;19.254;2023-05-10T06:26:24;19.90;47.70
51215;DHT22;63849;47.546;19.254;2023-05-10T06:28:50;20.90;46.20
51215;DHT22;63849;47.546;19.254;2023-05-10T06:31:16;21.90;43.70
51215;DHT22;63849;47.546;19.254;2023-05-10T06:33:42;21.40;44.70
51215;DHT22;63849;47.546;19.254;2023-05-10T06:36:08;21.60;44.00
51215;DHT22;63849;47.546;19.254;2023-05-10T06:38:34;22.10;42.30
51215;DHT22;63849;47.546;19.254;2023-05-10T06:40:59;22.90;41.50
51215;DHT22;63849;47.546;19.254;2023-05-10T06:43:28;23.30;41.70
51215;DHT22;63849;47.546;19.254;2023-05-10T06:45:57;23.50;40.60
51215;DHT22;63849;47.546;19.254;2023-05-10T06:48:23;22.80;41.60
51215;DHT22;63849;47.546;19.254;2023-05-10T06:50:49;23.40;39.90
51215;DHT22;63849;47.546;19.254;2023-05-10T06:53:15;22.90;39.50
51215;DHT22;63849;47.546;19.254;2023-05-10T06:55:41;22.00;41.40
51215;DHT22;63849;47.546;19.254;2023-05-10T06:58:06;21.60;42.40
51215;DHT22;63849;47.546;19.254;2023-05-10T07:00:32;22.50;40.90
51215;DHT22;63849;47.546;19.254;2023-05-10T07:02:59;22.50;41.30
51215;DHT22;63849;47.546;19.254;2023-05-10T07:05:25;23.50;40.20
51215;DHT22;63849;47.546;19.254;2023-05-10T07:07:54;24.20;38.30
51215;DHT22;63849;47.546;19.254;2023-05-10T07:10:22;23.50;38.90
51215;DHT22;63849;47.546;19.254;2023-05-10T07:12:51;24.30;38.20
51215;DHT22;63849;47.546;19.254;2023-05-10T07:15:23;23.30;38.70
51215;DHT22;63849;47.546;19.254;2023-05-10T07:17:49;23.00;39.20
51215;DHT22;63849;47.546;19.254;2023-05-10T07:20:15;22.60;40.20
51215;DHT22;63849;47.546;19.254;2023-05-10T07:22:40;22.40;40.60
51215;DHT22;63849;47.546;19.254;2023-05-10T07:25:07;22.40;40.50
51215;DHT22;63849;47.546;19.254;2023-05-10T07:27:32;21.10;42.00
51215;DHT22;63849;47.546;19.254;2023-05-10T07:30:00;19.30;46.50
51215;DHT22;63849;47.546;19.254;2023-05-10T07:32:25;19.10;47.90
51215;DHT22;63849;47.546;19.254;2023-05-10T07:34:52;19.40;47.20
51215;DHT22;63849;47.546;19.254;2023-05-10T07:37:17;19.50;47.50
51215;DHT22;63849;47.546;19.254;2023-05-10T07:39:44;20.50;45.50
51215;DHT22;63849;47.546;19.254;2023-05-10T07:42:12;20.70;45.40
51215;DHT22;63849;47.546;19.254;2023-05-10T07:44:38;20.30;45.10
51215;DHT22;63849;47.546;19.254;2023-05-10T07:47:03;19.90;46.50
51215;DHT22;63849;47.546;19.254;2023-05-10T07:49:29;19.10;48.60
51215;DHT22;63849;47.546;19.254;2023-05-10T07:51:56;18.90;50.30
51215;DHT22;63849;47.546;19.254;2023-05-10T07:54:22;18.90;49.00
51215;DHT22;63849;47.546;19.254;2023-05-10T07:56:47;18.50;51.20
51215;DHT22;63849;47.546;19.254;2023-05-10T07:59:17;18.10;51.00
51215;DHT22;63849;47.546;19.254;2023-05-10T08:01:43;18.00;52.10
51215;DHT22;63849;47.546;19.254;2023-05-10T08:04:11;18.00;52.40
51215;DHT22;63849;47.546;19.254;2023-05-10T08:06:37;18.20;51.90
51215;DHT22;63849;47.546;19.254;2023-05-10T08:09:05;17.90;52.70
51215;DHT22;63849;47.546;19.254;2023-05-10T08:11:31;17.60;52.00
51215;DHT22;63849;47.546;19.254;2023-05-10T08:13:59;17.30;53.40
51215;DHT22;63849;47.546;19.254;2023-05-10T08:16:25;17.30;53.70
51215;DHT22;63849;47.546;19.254;2023-05-10T08:18:51;17.40;53.30
51215;DHT22;63849;47.546;19.254;2023-05-10T08:21:17;17.40;53.50
51215;DHT22;63849;47.546;19.254;2023-05-10T08:23:43;17.60;52.70
51215;DHT22;63849;47.546;19.254;2023-05-10T08:26:09;17.60;52.40
51215;DHT22;63849;47.546;19.254;2023-05-10T08:28:35;17.40;53.60
51215;DHT22;63849;47.546;19.254;2023-05-10T08:31:01;17.10;53.20
51215;DHT22;63849;47.546;19.254;2023-05-10T08:33:27;17.10;53.60
51215;DHT22;63849;47.546;19.254;2023-05-10T08:35:53;16.90;54.20
51215;DHT22;63849;47.546;19.254;2023-05-10T08:38:19;17.00;53.10
51215;DHT22;63849;47.546;19.254;2023-05-10T08:40:45;17.20;52.80
51215;DHT22;63849;47.546;19.254;2023-05-10T08:43:12;17.30;53.10
51215;DHT22;63849;47.546;19.254;2023-05-10T08:45:43;17.00;53.00
51215;DHT22;63849;47.546;19.254;2023-05-10T08:48:12;17.00;53.80
51215;DHT22;63849;47.546;19.254;2023-05-10T08:50:42;17.30;53.40
51215;DHT22;63849;47.546;19.254;2023-05-10T08:53:13;17.10;52.10
51215;DHT22;63849;47.546;19.254;2023-05-10T08:55:41;17.50;54.10
51215;DHT22;63849;47.546;19.254;2023-05-10T08:58:09;17.90;52.50
51215;DHT22;63849;47.546;19.254;2023-05-10T09:00:36;17.70;51.90
51215;DHT22;63849;47.546;19.254;2023-05-10T09:03:05;17.90;51.90
51215;DHT22;63849;47.546;19.254;2023-05-10T09:05:32;17.90;51.60
51215;DHT22;63849;47.546;19.254;2023-05-10T09:07:58;17.90;50.70
51215;DHT22;63849;47.546;19.254;2023-05-10T09:10:30;17.60;52.40
51215;DHT22;63849;47.546;19.254;2023-05-10T09:12:56;17.30;52.20
51215;DHT22;63849;47.546;19.254;2023-05-10T09:15:23;17.10;52.40
51215;DHT22;63849;47.546;19.254;2023-05-10T09:17:54;17.10;52.90
51215;DHT22;63849;47.546;19.254;2023-05-10T09:20:21;17.10;51.90
51215;DHT22;63849;47.546;19.254;2023-05-10T09:22:53;17.10;52.60
51215;DHT22;63849;47.546;19.254;2023-05-10T09:25:18;17.30;53.10
51215;DHT22;63849;47.546;19.254;2023-05-10T09:27:46;17.40;52.90
51215;DHT22;63849;47.546;19.254;2023-05-10T09:30:25;17.60;54.00
51215;DHT22;63849;47.546;19.254;2023-05-10T09:32:52;17.60;51.70
51215;DHT22;63849;47.546;19.254;2023-05-10T09:35:20;17.60;51.30
51215;DHT22;63849;47.546;19.254;2023-05-10T09:37:48;17.70;50.90
51215;DHT22;63849;47.546;19.254;2023-05-10T09:40:17;17.50;50.50
51215;DHT22;63849;47.546;19.254;2023-05-10T09:42:52;17.40;51.90
51215;DHT22;63849;47.546;19.254;2023-05-10T09:45:18;17.90;52.60
51215;DHT22;63849;47.546;19.254;2023-05-10T09:47:45;18.00;50.10
51215;DHT22;63849;47.546;19.254;2023-05-10T09:50:11;17.50;50.20
51215;DHT22;63849;47.546;19.254;2023-05-10T09:52:57;17.40;50.80
51215;DHT22;63849;47.546;19.254;2023-05-10T09:55:26;17.50;49.80
51215;DHT22;63849;47.546;19.254;2023-05-10T09:58:01;17.50;50.50
51215;DHT22;63849;47.546;19.254;2023-05-10T10:00:28;18.00;51.60
51215;DHT22;63849;47.546;19.254;2023-05-10T10:03:00;17.90;50.60
51215;DHT22;63849;47.546;19.254;2023-05-10T10:05:45;17.50;51.30
51215;DHT22;63849;47.546;19.254;2023-05-10T10:08:12;17.40;51.90
51215;DHT22;63849;47.546;19.254;2023-05-10T10:10:40;17.40;51.90
51215;DHT22;63849;47.546;19.254;2023-05-10T10:13:06;17.40;52.30
51215;DHT22;63849;47.546;19.254;2023-05-10T10:15:33;17.40;52.00
51215;DHT22;63849;47.546;19.254;2023-05-10T10:17:59;17.60;51.40
51215;DHT22;63849;47.546;19.254;2023-05-10T10:20:26;17.70;50.80
51215;DHT22;63849;47.546;19.254;2023-05-10T10:22:57;17.60;50.30
51215;DHT22;63849;47.546;19.254;2023-05-10T10:25:22;17.80;49.90
51215;DHT22;63849;47.546;19.254;2023-05-10T10:30:42;17.50;50.60
51215;DHT22;63849;47.546;19.254;2023-05-10T10:35:53;17.70;51.00
51215;DHT22;63849;47.546;19.254;2023-05-10T10:38:21;17.80;50.50
51215;DHT22;63849;47.546;19.254;2023-05-10T10:40:47;17.90;49.90
51215;DHT22;63849;47.546;19.254;2023-05-10T10:43:27;18.20;48.20
51215;DHT22;63849;47.546;19.254;2023-05-10T10:46:18;18.20;48.50
51215;DHT22;63849;47.546;19.254;2023-05-10T10:49:21;18.10;48.00
51215;DHT22;63849;47.546;19.254;2023-05-10T10:54:53;17.70;48.80
51215;DHT22;63849;47.546;19.254;2023-05-10T10:57:22;18.10;49.20
51215;DHT22;63849;47.546;19.254;2023-05-10T10:59:50;17.90;47.10
51215;DHT22;63849;47.546;19.254;2023-05-10T11:02:43;18.20;46.90
51215;DHT22;63849;47.546;19.254;2023-05-10T11:07:57;18.70;46.20
51215;DHT22;63849;47.546;19.254;2023-05-10T11:10:24;18.40;45.50
51215;DHT22;63849;47.546;19.254;2023-05-10T11:18:15;17.80;46.90
51215;DHT22;63849;47.546;19.254;2023-05-10T11:20:41;17.90;48.60
51215;DHT22;63849;47.546;19.254;2023-05-10T11:23:12;18.00;48.40
51215;DHT22;63849;47.546;19.254;2023-05-10T11:25:48;18.20;47.50
51215;DHT22;63849;47.546;19.254;2023-05-10T11:28:16;18.10;47.00
51215;DHT22;63849;47.546;19.254;2023-05-10T11:30:43;18.20;47.60
51215;DHT22;63849;47.546;19.254;2023-05-10T11:33:14;18.40;48.10
51215;DHT22;63849;47.546;19.254;2023-05-10T11:35:41;18.50;46.70
51215;DHT22;63849;47.546;19.254;2023-05-10T11:38:11;18.60;46.80
51215;DHT22;63849;47.546;19.254;2023-05-10T11:40:37;18.70;46.50
51215;DHT22;63849;47.546;19.254;2023-05-10T11:43:04;18.70;47.00
51215;DHT22;63849;47.546;19.254;2023-05-10T11:45:33;18.70;46.70
51215;DHT22;63849;47.546;19.254;2023-05-10T11:47:59;18.50;46.50
51215;DHT22;63849;47.546;19.254;2023-05-10T11:50:25;18.60;46.40
51215;DHT22;63849;47.546;19.254;2023-05-10T11:52:55;18.40;44.20
51215;DHT22;63849;47.546;19.254;2023-05-10T11:55:22;18.40;44.90
51215;DHT22;63849;47.546;19.254;2023-05-10T11:57:51;18.70;44.00
51215;DHT22;63849;47.546;19.254;2023-05-10T12:00:16;18.80;43.20
51215;DHT22;63849;47.546;19.254;2023-05-10T12:02:42;18.90;44.70
51215;DHT22;63849;47.546;19.254;2023-05-10T12:05:10;18.80;44.50
51215;DHT22;63849;47.546;19.254;2023-05-10T12:07:36;18.70;44.70
51215;DHT22;63849;47.546;19.254;2023-05-10T12:10:12;18.60;46.00
51215;DHT22;63849;47.546;19.254;2023-05-10T12:12:46;18.70;46.30
51215;DHT22;63849;47.546;19.254;2023-05-10T12:17:45;18.70;44.90
51215;DHT22;63849;47.546;19.254;2023-05-10T12:20:19;18.70;44.90
51215;DHT22;63849;47.546;19.254;2023-05-10T12:22:52;18.80;44.20
51215;DHT22;63849;47.546;19.254;2023-05-10T12:25:18;18.90;44.60
51215;DHT22;63849;47.546;19.254;2023-05-10T12:30:22;18.90;45.30
51215;DHT22;63849;47.546;19.254;2023-05-10T12:32:49;19.00;46.20
51215;DHT22;63849;47.546;19.254;2023-05-10T12:35:15;19.00;46.40
51215;DHT22;63849;47.546;19.254;2023-05-10T12:37:43;19.10;45.60
51215;DHT22;63849;47.546;19.254;2023-05-10T12:40:10;18.70;46.20
51215;DHT22;63849;47.546;19.254;2023-05-10T12:42:39;18.80;45.80
51215;DHT22;63849;47.546;19.254;2023-05-10T12:45:06;18.80;46.70
51215;DHT22;63849;47.546;19.254;2023-05-10T12:47:33;18.90;45.20
51215;DHT22;63849;47.546;19.254;2023-05-10T12:50:00;18.90;45.50
51215;DHT22;63849;47.546;19.254;2023-05-10T12:52:27;18.90;45.40
51215;DHT22;63849;47.546;19.254;2023-05-10T12:54:53;18.70;45.20
51215;DHT22;63849;47.546;19.254;2023-05-10T12:57:22;18.80;45.80
51215;DHT22;63849;47.546;19.254;2023-05-10T12:59:49;18.80;44.60
51215;DHT22;63849;47.546;19.254;2023-05-10T13:02:15;18.70;42.20
51215;DHT22;63849;47.546;19.254;2023-05-10T13:04:43;18.70;43.20
51215;DHT22;63849;47.546;19.254;2023-05-10T13:07:09;18.60;43.50
51215;DHT22;63849;47.546;19.254;2023-05-10T13:09:35;18.60;43.60
51215;DHT22;63849;47.546;19.254;2023-05-10T13:12:01;18.50;42.50
51215;DHT22;63849;47.546;19.254;2023-05-10T13:14:27;18.50;43.60
51215;DHT22;63849;47.546;19.254;2023-05-10T13:16:53;18.30;44.00
51215;DHT22;63849;47.546;19.254;2023-05-10T13:19:19;18.30;44.30
51215;DHT22;63849;47.546;19.254;2023-05-10T13:21:45;18.40;44.90
51215;DHT22;63849;47.546;19.254;2023-05-10T13:24:13;18.50;43.20
51215;DHT22;63849;47.546;19.254;2023-05-10T13:26:40;18.70;42.60
51215;DHT22;63849;47.546;19.254;2023-05-10T13:29:06;18.80;42.40
51215;DHT22;63849;47.546;19.254;2023-05-10T13:31:33;18.80;44.10
51215;DHT22;63849;47.546;19.254;2023-05-10T13:33:58;19.00;43.20
51215;DHT22;63849;47.546;19.254;2023-05-10T13:36:24;19.00;43.10
51215;DHT22;63849;47.546;19.254;2023-05-10T13:38:50;18.80;43.00
51215;DHT22;63849;47.546;19.254;2023-05-10T13:41:16;18.70;43.60
51215;DHT22;63849;47.546;19.254;2023-05-10T13:43:42;18.60;45.10
51215;DHT22;63849;47.546;19.254;2023-05-10T13:46:07;18.60;44.80
51215;DHT22;63849;47.546;19.254;2023-05-10T13:48:34;18.60;43.20
51215;DHT22;63849;47.546;19.254;2023-05-10T13:51:03;18.80;42.90
51215;DHT22;63849;47.546;19.254;2023-05-10T13:53:29;19.00;42.60
51215;DHT22;63849;47.546;19.254;2023-05-10T13:55:56;18.90;42.50
51215;DHT22;63849;47.546;19.254;2023-05-10T13:58:22;18.80;41.90
51215;DHT22;63849;47.546;19.254;2023-05-10T14:00:49;18.70;42.90
51215;DHT22;63849;47.546;19.254;2023-05-10T14:03:17;18.90;43.00
51215;DHT22;63849;47.546;19.254;2023-05-10T14:05:42;18.90;43.20
51215;DHT22;63849;47.546;19.254;2023-05-10T14:08:10;19.10;43.60
51215;DHT22;63849;47.546;19.254;2023-05-10T14:10:38;19.00;43.40
51215;DHT22;63849;47.546;19.254;2023-05-10T14:13:05;19.20;43.50
51215;DHT22;63849;47.546;19.254;2023-05-10T14:15:30;18.90;43.30
51215;DHT22;63849;47.546;19.254;2023-05-10T14:17:56;18.80;43.80
51215;DHT22;63849;47.546;19.254;2023-05-10T14:20:22;18.60;43.90
51215;DHT22;63849;47.546;19.254;2023-05-10T14:22:47;18.60;43.90
51215;DHT22;63849;47.546;19.254;2023-05-10T14:25:14;18.50;43.50
51215;DHT22;63849;47.546;19.254;2023-05-10T14:27:39;18.40;43.20
51215;DHT22;63849;47.546;19.254;2023-05-10T14:30:06;18.10;42.40
51215;DHT22;63849;47.546;19.254;2023-05-10T14:32:34;18.00;43.20
51215;DHT22;63849;47.546;19.254;2023-05-10T14:35:02;18.10;43.50
51215;DHT22;63849;47.546;19.254;2023-05-10T14:37:28;18.20;42.40
51215;DHT22;63849;47.546;19.254;2023-05-10T14:39:56;18.30;43.00
51215;DHT22;63849;47.546;19.254;2023-05-10T14:42:22;18.40;42.70
51215;DHT22;63849;47.546;19.254;2023-05-10T14:44:48;18.30;41.10
51215;DHT22;63849;47.546;19.254;2023-05-10T14:47:13;18.30;41.60
51215;DHT22;63849;47.546;19.254;2023-05-10T14:49:39;18.20;42.00
51215;DHT22;63849;47.546;19.254;2023-05-10T14:52:08;18.00;41.50
51215;DHT22;63849;47.546;19.254;2023-05-10T14:54:34;18.00;41.60
51215;DHT22;63849;47.546;19.254;2023-05-10T14:57:00;18.10;41.20
51215;DHT22;63849;47.546;19.254;2023-05-10T14:59:26;18.10;40.50
51215;DHT22;63849;47.546;19.254;2023-05-10T15:01:51;18.10;40.60
51215;DHT22;63849;47.546;19.254;2023-05-10T15:04:17;18.10;40.00
51215;DHT22;63849;47.546;19.254;2023-05-10T15:06:43;18.10;40.00
51215;DHT22;63849;47.546;19.254;2023-05-10T15:09:08;18.20;40.50
51215;DHT22;63849;47.546;19.254;2023-05-10T15:11:36;18.30;41.20
51215;DHT22;63849;47.546;19.254;2023-05-10T15:14:01;18.40;42.10
51215;DHT22;63849;47.546;19.254;2023-05-10T15:16:27;18.40;42.70
51215;DHT22;63849;47.546;19.254;2023-05-10T15:18:53;18.40;42.70
51215;DHT22;63849;47.546;19.254;2023-05-10T15:21:20;18.30;43.10
51215;DHT22;63849;47.546;19.254;2023-05-10T15:23:46;18.10;43.50
51215;DHT22;63849;47.546;19.254;2023-05-10T15:26:13;18.00;43.60
51215;DHT22;63849;47.546;19.254;2023-05-10T15:28:39;17.90;43.90
51215;DHT22;63849;47.546;19.254;2023-05-10T15:31:05;17.90;44.70
51215;DHT22;63849;47.546;19.254;2023-05-10T15:33:31;17.90;45.00
51215;DHT22;63849;47.546;19.254;2023-05-10T15:35:57;17.90;44.60
51215;DHT22;63849;47.546;19.254;2023-05-10T15:38:22;17.80;45.90
51215;DHT22;63849;47.546;19.254;2023-05-10T15:40:48;17.80;45.80
51215;DHT22;63849;47.546;19.254;2023-05-10T15:43:14;17.80;45.80
51215;DHT22;63849;47.546;19.254;2023-05-10T15:45:40;17.80;46.50
51215;DHT22;63849;47.546;19.254;2023-05-10T15:48:06;17.80;46.70
51215;DHT22;63849;47.546;19.254;2023-05-10T15:50:32;17.90;46.90
51215;DHT22;63849;47.546;19.254;2023-05-10T15:52:58;17.90;45.60
51215;DHT22;63849;47.546;19.254;2023-05-10T15:55:24;17.90;45.40